createdAt,value
2022-12-31T00:01:19.462Z,93.96
2022-12-31T00:03:46.248Z,93.73
2022-12-31T00:06:17.095Z,93.22
2022-12-31T00:08:44.686Z,93.03
2022-12-31T00:11:12.399Z,92.84
2022-12-31T00:13:39.255Z,92.65
2022-12-31T00:16:12.366Z,92.57
2022-12-31T00:18:39.463Z,92.32
2022-12-31T00:21:09.682Z,92.18
2022-12-31T00:23:37.285Z,92.14
2022-12-31T00:26:06.241Z,91.95
2022-12-31T00:28:33.644Z,91.83
2022-12-31T00:31:15.363Z,91.65
2022-12-31T00:33:42.986Z,91.52
2022-12-31T00:36:13.981Z,91.03
2022-12-31T00:38:42.957Z,90.74
2022-12-31T00:41:10.743Z,90.56
2022-12-31T00:43:37.471Z,90.33
2022-12-31T00:46:05.408Z,90.42
2022-12-31T00:48:32.671Z,90.50
2022-12-31T00:51:00.119Z,90.46
2022-12-31T00:53:27.384Z,90.54
2022-12-31T00:56:00.437Z,90.63
2022-12-31T00:58:27.449Z,90.35
2022-12-31T01:00:54.148Z,90.06
2022-12-31T01:03:20.854Z,89.67
2022-12-31T01:05:47.426Z,89.12
2022-12-31T01:08:13.884Z,89.03
2022-12-31T01:10:58.863Z,88.67
2022-12-31T01:13:25.310Z,87.95
2022-12-31T01:15:52.110Z,87.34
2022-12-31T01:18:18.641Z,86.94
2022-12-31T01:20:45.100Z,86.72
2022-12-31T01:23:11.811Z,86.18
2022-12-31T01:25:41.790Z,86.07
2022-12-31T01:28:09.452Z,85.65
2022-12-31T01:30:38.913Z,85.51
2022-12-31T01:33:05.469Z,85.46
2022-12-31T01:35:34.703Z,85.38
2022-12-31T01:38:01.237Z,85.48
2022-12-31T01:40:27.706Z,85.08
2022-12-31T01:42:58.084Z,84.71
2022-12-31T01:45:25.051Z,84.54
2022-12-31T01:47:59.603Z,83.85
2022-12-31T01:50:32.459Z,83.18
2022-12-31T01:53:03.480Z,83.48
2022-12-31T01:55:34.608Z,83.61
2022-12-31T01:58:14.051Z,83.91
2022-12-31T02:00:40.672Z,83.88
2022-12-31T02:03:08.612Z,84.29
2022-12-31T02:05:51.576Z,83.52
2022-12-31T02:08:18.070Z,83.97
2022-12-31T02:10:44.542Z,84.03
2022-12-31T02:13:11.116Z,83.62
2022-12-31T02:16:01.962Z,83.21
2022-12-31T02:18:43.408Z,82.72
2022-12-31T02:21:31.277Z,82.33
2022-12-31T02:24:39.576Z,82.63
2022-12-31T02:27:40.388Z,82.65
2022-12-31T02:30:09.209Z,82.62
2022-12-31T02:32:50.253Z,82.47
2022-12-31T02:35:37.802Z,82.34
2022-12-31T02:38:09.023Z,81.53
2022-12-31T02:40:38.151Z,81.01
2022-12-31T02:43:05.060Z,81.12
2022-12-31T02:45:37.159Z,81.50
2022-12-31T02:48:27.599Z,81.53
2022-12-31T02:51:02.927Z,81.79
2022-12-31T02:53:36.161Z,81.72
2022-12-31T02:56:47.525Z,81.48
2022-12-31T02:59:49.591Z,81.65
2022-12-31T03:02:20.048Z,82.24
2022-12-31T03:04:55.340Z,82.55
2022-12-31T03:07:25.148Z,82.30
2022-12-31T03:09:52.215Z,82.00
2022-12-31T03:12:40.915Z,81.71
2022-12-31T03:15:20.086Z,82.09
2022-12-31T03:17:54.839Z,82.13
2022-12-31T03:20:42.992Z,82.38
2022-12-31T03:23:12.522Z,82.47
2022-12-31T03:25:39.124Z,83.05
2022-12-31T03:28:11.516Z,84.86
2022-12-31T03:30:40.087Z,85.59
2022-12-31T03:33:07.826Z,86.07
2022-12-31T03:35:36.328Z,85.28
2022-12-31T03:38:04.067Z,85.17
2022-12-31T03:40:32.251Z,85.33
2022-12-31T03:42:58.728Z,85.72
2022-12-31T03:45:25.253Z,85.51
2022-12-31T03:47:51.831Z,85.74
2022-12-31T03:50:19.235Z,86.18
2022-12-31T03:52:46.490Z,85.97
2022-12-31T03:55:13.840Z,85.93
2022-12-31T03:57:40.812Z,86.33
2022-12-31T04:00:11.928Z,85.92
2022-12-31T04:02:38.619Z,85.89
2022-12-31T04:05:05.728Z,86.09
2022-12-31T04:07:32.194Z,85.43
2022-12-31T04:09:58.811Z,84.51
2022-12-31T04:12:25.257Z,84.48
2022-12-31T04:14:51.770Z,84.16
2022-12-31T04:17:18.263Z,84.42
2022-12-31T04:19:44.776Z,83.97
2022-12-31T04:22:11.242Z,83.23
2022-12-31T04:24:37.706Z,83.13
2022-12-31T04:27:07.830Z,83.13
2022-12-31T04:29:34.663Z,82.98
2022-12-31T04:32:01.406Z,83.19
2022-12-31T04:34:27.939Z,82.76
2022-12-31T04:36:54.439Z,81.89
2022-12-31T04:39:20.895Z,82.00
2022-12-31T04:41:47.415Z,81.90
2022-12-31T04:44:13.987Z,81.63
2022-12-31T04:46:40.458Z,81.56
2022-12-31T04:49:06.960Z,81.54
2022-12-31T04:51:33.902Z,81.23
2022-12-31T04:54:01.015Z,80.80
2022-12-31T04:56:27.977Z,80.87
2022-12-31T04:58:54.802Z,81.31
2022-12-31T05:01:21.755Z,80.76
2022-12-31T05:03:48.917Z,80.05
2022-12-31T05:06:20.889Z,79.62
2022-12-31T05:08:48.166Z,80.17
2022-12-31T05:11:14.942Z,79.95
2022-12-31T05:13:41.880Z,79.68
2022-12-31T05:16:09.230Z,80.04
2022-12-31T05:18:36.351Z,79.99
2022-12-31T05:21:02.884Z,80.15
2022-12-31T05:23:29.702Z,79.99
2022-12-31T05:25:56.595Z,79.93
2022-12-31T05:28:23.056Z,80.20
2022-12-31T05:30:50.866Z,80.29
2022-12-31T05:33:18.408Z,80.34
2022-12-31T05:35:45.539Z,80.59
2022-12-31T05:38:12.083Z,81.25
2022-12-31T05:40:38.565Z,81.46
2022-12-31T05:43:05.112Z,82.20
2022-12-31T05:45:31.657Z,82.25
2022-12-31T05:47:58.201Z,82.23
2022-12-31T05:50:24.912Z,81.75
2022-12-31T05:52:51.410Z,82.12
2022-12-31T05:55:18.068Z,82.71
2022-12-31T05:57:44.536Z,82.52
2022-12-31T06:00:11.816Z,82.66
2022-12-31T06:02:38.314Z,82.32
2022-12-31T06:05:05.304Z,82.13
2022-12-31T06:07:31.921Z,81.69
2022-12-31T06:09:58.445Z,81.45
2022-12-31T06:12:24.978Z,81.09
2022-12-31T06:14:51.486Z,81.03
2022-12-31T06:17:19.041Z,80.82
2022-12-31T06:19:47.245Z,80.55
2022-12-31T06:22:14.088Z,80.04
2022-12-31T06:24:40.662Z,79.90
2022-12-31T06:27:07.123Z,79.65
2022-12-31T06:29:33.692Z,79.49
2022-12-31T06:32:00.187Z,79.20
2022-12-31T06:34:26.643Z,79.13
2022-12-31T06:36:53.196Z,78.52
2022-12-31T06:39:19.717Z,79.02
2022-12-31T06:41:46.165Z,79.09
2022-12-31T06:44:12.653Z,79.12
2022-12-31T06:46:39.138Z,79.61
2022-12-31T06:49:05.719Z,79.77
2022-12-31T06:51:32.178Z,79.98
2022-12-31T06:53:58.671Z,80.20
2022-12-31T06:56:33.879Z,80.59
2022-12-31T06:59:01.865Z,80.44
2022-12-31T07:01:50.365Z,80.41
2022-12-31T07:04:29.663Z,80.25
2022-12-31T07:06:56.050Z,80.24
2022-12-31T07:09:58.135Z,79.79
2022-12-31T07:12:55.346Z,79.45
2022-12-31T07:15:24.716Z,79.15
2022-12-31T07:18:30.130Z,79.16
2022-12-31T07:20:56.756Z,79.46
2022-12-31T07:23:23.453Z,78.91
2022-12-31T07:26:16.726Z,78.51
2022-12-31T07:29:03.898Z,79.01
2022-12-31T07:31:48.917Z,78.04
2022-12-31T07:34:37.667Z,77.67
2022-12-31T07:37:16.286Z,77.17
2022-12-31T07:40:03.282Z,76.50
2022-12-31T07:42:42.794Z,76.70
2022-12-31T07:45:26.486Z,76.26
2022-12-31T07:47:57.462Z,76.18
2022-12-31T07:50:27.376Z,76.00
2022-12-31T07:52:54.215Z,76.12
2022-12-31T07:55:20.737Z,76.14
2022-12-31T07:58:03.313Z,75.89
2022-12-31T08:00:31.307Z,75.61
2022-12-31T08:03:16.252Z,75.81
2022-12-31T08:06:08.347Z,75.51
2022-12-31T08:09:00.396Z,75.52
2022-12-31T08:11:37.937Z,75.75
2022-12-31T08:14:10.132Z,75.81
2022-12-31T08:16:36.914Z,75.67
2022-12-31T08:19:03.960Z,76.00
2022-12-31T08:21:45.484Z,76.34
2022-12-31T08:24:35.762Z,76.01
2022-12-31T08:27:07.825Z,75.38
2022-12-31T08:30:04.649Z,75.33
2022-12-31T08:32:52.587Z,75.51
2022-12-31T08:35:56.661Z,75.29
2022-12-31T08:38:32.454Z,75.16
2022-12-31T08:41:04.823Z,75.33
2022-12-31T08:43:49.665Z,75.27
2022-12-31T08:46:31.410Z,74.83
2022-12-31T08:48:58.139Z,75.28
2022-12-31T08:51:26.437Z,75.24
2022-12-31T08:53:53.566Z,75.04
2022-12-31T08:56:36.520Z,74.40
2022-12-31T08:59:08.757Z,74.58
2022-12-31T09:01:50.307Z,74.47
2022-12-31T09:04:55.768Z,74.83
2022-12-31T09:07:51.177Z,75.02
2022-12-31T09:10:25.814Z,75.20
2022-12-31T09:13:08.119Z,74.92
2022-12-31T09:15:58.747Z,74.94
2022-12-31T09:18:31.243Z,74.04
2022-12-31T09:20:59.736Z,74.63
2022-12-31T09:23:26.949Z,74.85
2022-12-31T09:26:05.211Z,74.33
2022-12-31T09:29:01.810Z,74.38
2022-12-31T09:31:40.145Z,74.18
2022-12-31T09:34:25.265Z,74.24
2022-12-31T09:36:59.286Z,74.24
2022-12-31T09:39:30.834Z,73.35
2022-12-31T09:42:26.615Z,72.89
2022-12-31T09:45:23.972Z,73.12
2022-12-31T09:48:11.824Z,73.05
2022-12-31T09:51:01.461Z,72.90
2022-12-31T09:53:30.847Z,72.76
2022-12-31T09:56:09.477Z,72.91
2022-12-31T09:59:14.025Z,72.76
2022-12-31T10:02:06.714Z,72.88
2022-12-31T10:04:56.183Z,72.90
2022-12-31T10:08:00.530Z,72.90
2022-12-31T10:10:53.373Z,72.62
2022-12-31T10:14:00.291Z,72.83
2022-12-31T10:16:40.717Z,73.00
2022-12-31T10:19:31.484Z,72.96
2022-12-31T10:21:57.920Z,72.82
2022-12-31T10:24:39.493Z,72.56
2022-12-31T10:27:30.648Z,72.99
2022-12-31T10:30:13.100Z,72.74
2022-12-31T10:33:16.519Z,72.52
2022-12-31T10:36:09.129Z,72.81
2022-12-31T10:38:38.695Z,72.84
2022-12-31T10:42:05.582Z,72.79
2022-12-31T10:44:59.715Z,72.46
2022-12-31T10:47:26.128Z,72.74
2022-12-31T10:50:21.396Z,73.03
2022-12-31T10:53:09.107Z,73.10
2022-12-31T10:55:54.519Z,73.40
2022-12-31T10:58:45.550Z,73.50
2022-12-31T11:01:30.578Z,73.52
2022-12-31T11:04:34.461Z,73.03
2022-12-31T11:07:13.031Z,73.17
2022-12-31T11:09:51.596Z,72.81
2022-12-31T11:12:54.997Z,72.36
2022-12-31T11:15:21.481Z,72.25
2022-12-31T11:18:06.371Z,72.11
2022-12-31T11:20:55.920Z,71.96
2022-12-31T11:23:50.321Z,71.95
2022-12-31T11:26:27.939Z,72.21
2022-12-31T11:29:03.762Z,72.30
2022-12-31T11:31:52.461Z,71.85
2022-12-31T11:34:31.933Z,71.76
2022-12-31T11:37:22.417Z,71.60
2022-12-31T11:39:51.981Z,71.66
2022-12-31T11:42:44.010Z,71.97
2022-12-31T11:45:15.060Z,71.70
2022-12-31T11:48:38.812Z,72.24
2022-12-31T11:51:36.707Z,71.36
2022-12-31T11:54:21.752Z,71.53
2022-12-31T11:56:58.494Z,72.08
2022-12-31T11:59:25.065Z,71.19
2022-12-31T12:02:30.603Z,70.87
2022-12-31T12:05:05.027Z,70.65
2022-12-31T12:07:36.816Z,71.55
2022-12-31T12:10:14.980Z,71.11
2022-12-31T12:12:42.826Z,70.59
2022-12-31T12:15:16.796Z,70.54
2022-12-31T12:17:43.583Z,70.13
2022-12-31T12:20:21.567Z,70.28
2022-12-31T12:22:50.783Z,69.80
2022-12-31T12:25:21.360Z,70.35
2022-12-31T12:27:48.127Z,70.41
2022-12-31T12:30:26.972Z,69.86
2022-12-31T12:32:58.462Z,69.41
2022-12-31T12:35:31.079Z,68.92
2022-12-31T12:38:05.048Z,69.06
2022-12-31T12:40:34.293Z,69.30
2022-12-31T12:43:03.156Z,69.07
2022-12-31T12:45:47.671Z,68.38
2022-12-31T12:48:46.310Z,68.47
2022-12-31T12:51:18.849Z,69.02
2022-12-31T12:54:06.433Z,68.88
2022-12-31T12:57:13.810Z,68.87
2022-12-31T12:59:56.141Z,68.69
2022-12-31T13:02:51.565Z,69.08
2022-12-31T13:05:50.486Z,70.07
2022-12-31T13:08:26.140Z,71.06
2022-12-31T13:11:04.978Z,72.73
2022-12-31T13:14:15.744Z,72.65
2022-12-31T13:17:04.171Z,71.69
2022-12-31T13:19:38.094Z,71.34
2022-12-31T13:22:25.460Z,71.07
2022-12-31T13:25:06.478Z,70.61
2022-12-31T13:27:41.725Z,70.39
2022-12-31T13:30:19.915Z,69.64
2022-12-31T13:32:52.015Z,70.53
2022-12-31T13:35:24.780Z,71.21
2022-12-31T13:38:04.788Z,72.46
2022-12-31T13:40:46.568Z,72.69
2022-12-31T13:43:25.685Z,73.68
2022-12-31T13:46:04.160Z,75.53
2022-12-31T13:48:37.947Z,76.55
2022-12-31T13:51:26.486Z,77.74
2022-12-31T13:54:10.676Z,78.78
2022-12-31T13:56:39.045Z,78.81
2022-12-31T13:59:16.702Z,78.87
2022-12-31T14:01:52.367Z,79.20
2022-12-31T14:04:29.502Z,79.44
2022-12-31T14:07:15.763Z,79.79
2022-12-31T14:09:42.767Z,79.47
2022-12-31T14:12:24.472Z,79.63
2022-12-31T14:15:28.692Z,79.81
2022-12-31T14:18:17.355Z,80.07
2022-12-31T14:21:07.720Z,80.08
2022-12-31T14:23:46.499Z,80.21
2022-12-31T14:26:27.572Z,80.88
2022-12-31T14:29:00.919Z,80.26
2022-12-31T14:31:51.849Z,80.25
2022-12-31T14:34:37.045Z,80.03
2022-12-31T14:37:18.776Z,79.44
2022-12-31T14:40:27.429Z,79.76
2022-12-31T14:43:22.292Z,79.62
2022-12-31T14:46:07.715Z,79.27
2022-12-31T14:49:17.461Z,79.51
2022-12-31T14:51:44.039Z,79.26
2022-12-31T14:54:29.402Z,79.29
2022-12-31T14:56:56.005Z,79.33
2022-12-31T14:59:28.628Z,79.23
2022-12-31T15:01:57.732Z,78.80
2022-12-31T15:04:32.324Z,78.62
2022-12-31T15:07:08.456Z,78.66
2022-12-31T15:10:03.009Z,78.30
2022-12-31T15:12:48.175Z,78.01
2022-12-31T15:15:35.834Z,77.97
2022-12-31T15:18:40.922Z,77.52
2022-12-31T15:21:27.714Z,76.88
2022-12-31T15:23:54.664Z,76.08
2022-12-31T15:26:34.643Z,75.51
2022-12-31T15:29:07.353Z,75.30
2022-12-31T15:31:36.096Z,74.91
2022-12-31T15:34:20.283Z,74.39
2022-12-31T15:36:54.176Z,73.26
2022-12-31T15:39:32.544Z,72.48
2022-12-31T15:44:59.315Z,72.05
2022-12-31T15:47:40.132Z,71.72
2022-12-31T15:50:13.109Z,71.46
2022-12-31T15:52:42.987Z,71.53
2022-12-31T15:55:22.020Z,70.71
2022-12-31T15:57:50.589Z,70.95
2022-12-31T16:00:22.253Z,70.62
2022-12-31T16:02:53.424Z,70.10
2022-12-31T16:05:26.438Z,70.16
2022-12-31T16:07:57.459Z,70.23
2022-12-31T16:10:32.394Z,69.81
2022-12-31T16:12:59.826Z,69.90
2022-12-31T16:15:32.805Z,69.63
2022-12-31T16:18:23.005Z,69.85
2022-12-31T16:20:51.717Z,69.99
2022-12-31T16:23:27.704Z,69.75
2022-12-31T16:26:00.639Z,69.58
2022-12-31T16:28:32.543Z,69.23
2022-12-31T16:31:02.545Z,69.20
2022-12-31T16:33:30.626Z,69.45
2022-12-31T16:35:59.290Z,70.19
2022-12-31T16:38:37.045Z,69.83
2022-12-31T16:41:03.530Z,69.51
2022-12-31T16:43:31.272Z,70.11
2022-12-31T16:46:07.245Z,69.76
2022-12-31T16:48:33.999Z,69.72
2022-12-31T16:51:00.561Z,69.54
2022-12-31T16:53:28.300Z,69.53
2022-12-31T16:56:06.247Z,69.05
2022-12-31T16:58:45.176Z,68.95
2022-12-31T17:01:18.979Z,68.81
2022-12-31T17:03:50.382Z,67.74
2022-12-31T17:06:19.162Z,68.38
2022-12-31T17:08:48.478Z,67.36
2022-12-31T17:11:34.929Z,67.08
2022-12-31T17:14:07.672Z,66.40
2022-12-31T17:16:42.911Z,65.94
2022-12-31T17:19:32.181Z,65.68
2022-12-31T17:21:58.709Z,65.03
2022-12-31T17:24:25.307Z,64.82
2022-12-31T17:26:52.675Z,64.07
2022-12-31T17:29:26.245Z,63.97
2022-12-31T17:32:05.364Z,64.11
2022-12-31T17:34:34.742Z,64.41
2022-12-31T17:37:15.930Z,64.79
2022-12-31T17:39:49.974Z,64.08
2022-12-31T17:42:34.730Z,64.21
2022-12-31T17:45:20.991Z,63.75
2022-12-31T17:47:51.137Z,63.51
2022-12-31T17:50:26.284Z,63.26
2022-12-31T17:52:57.340Z,63.18
2022-12-31T17:55:24.009Z,63.52
2022-12-31T17:57:57.207Z,63.04
2022-12-31T18:00:26.376Z,62.87
2022-12-31T18:02:52.936Z,62.41
2022-12-31T18:05:22.701Z,61.92
2022-12-31T18:07:49.399Z,62.38
2022-12-31T18:10:17.244Z,61.72
2022-12-31T18:12:44.995Z,61.63
2022-12-31T18:15:29.589Z,61.08
2022-12-31T18:17:56.065Z,61.60
2022-12-31T18:20:24.070Z,60.42
2022-12-31T18:22:50.895Z,60.14
2022-12-31T18:25:21.399Z,59.30
2022-12-31T18:27:51.329Z,58.76
2022-12-31T18:30:18.254Z,59.03
2022-12-31T18:32:45.641Z,58.25
2022-12-31T18:35:48.637Z,58.58
2022-12-31T18:38:11.585Z,59.12
2022-12-31T18:40:42.579Z,57.86
2022-12-31T18:43:16.146Z,57.94
2022-12-31T18:45:42.808Z,57.43
2022-12-31T18:48:09.526Z,57.63
2022-12-31T18:50:36.111Z,56.70
2022-12-31T18:53:02.655Z,57.45
2022-12-31T18:55:39.521Z,56.66
2022-12-31T18:58:07.269Z,56.27
2022-12-31T19:00:35.080Z,55.89
2022-12-31T19:03:01.843Z,55.24
2022-12-31T19:05:31.315Z,55.31
2022-12-31T19:07:58.897Z,54.22
2022-12-31T19:10:26.923Z,53.91
2022-12-31T19:12:53.855Z,53.00
2022-12-31T19:15:29.629Z,52.55
2022-12-31T19:17:57.425Z,52.64
2022-12-31T19:20:23.952Z,52.73
2022-12-31T19:22:50.423Z,52.63
2022-12-31T19:25:18.203Z,52.43
2022-12-31T19:27:44.895Z,52.65
2022-12-31T19:30:21.353Z,52.45
2022-12-31T19:32:47.983Z,52.47
2022-12-31T19:35:15.863Z,52.23
2022-12-31T19:37:43.821Z,52.30
2022-12-31T19:40:14.426Z,52.03
2022-12-31T19:42:41.319Z,51.75
2022-12-31T19:45:13.489Z,51.76
2022-12-31T19:47:40.000Z,51.51
2022-12-31T19:50:06.901Z,51.68
2022-12-31T19:52:33.390Z,51.71
2022-12-31T19:54:59.822Z,51.50
2022-12-31T19:57:26.278Z,51.25
2022-12-31T19:59:52.787Z,51.52
2022-12-31T20:02:19.390Z,51.42
2022-12-31T20:04:45.950Z,51.67
2022-12-31T20:07:12.452Z,51.06
2022-12-31T20:09:38.915Z,51.30
2022-12-31T20:12:05.558Z,51.42
2022-12-31T20:14:32.071Z,51.45
2022-12-31T20:16:58.651Z,51.13
2022-12-31T20:19:25.161Z,50.63
2022-12-31T20:21:51.730Z,50.65
2022-12-31T20:24:18.161Z,50.85
2022-12-31T20:26:44.626Z,51.06
2022-12-31T20:29:11.156Z,50.89
2022-12-31T20:31:39.258Z,51.30
2022-12-31T20:34:05.802Z,50.91
2022-12-31T20:36:32.417Z,51.56
2022-12-31T20:38:58.948Z,51.27
2022-12-31T20:41:26.244Z,51.62
2022-12-31T20:43:52.801Z,51.69
2022-12-31T20:46:23.217Z,51.59
2022-12-31T20:48:52.044Z,51.93
2022-12-31T20:51:19.570Z,51.34
2022-12-31T20:53:51.191Z,51.46
2022-12-31T20:56:18.116Z,51.55
2022-12-31T20:58:45.002Z,51.82
2022-12-31T21:01:11.865Z,51.71
2022-12-31T21:06:28.997Z,52.10
2022-12-31T21:08:57.576Z,52.03
2022-12-31T21:11:42.989Z,51.81
2022-12-31T21:14:09.470Z,52.08
2022-12-31T21:16:36.151Z,51.90
2022-12-31T21:19:02.794Z,52.01
2022-12-31T21:21:29.309Z,51.76
2022-12-31T21:23:55.850Z,52.08
2022-12-31T21:26:22.398Z,51.67
2022-12-31T21:28:48.868Z,52.00
2022-12-31T21:31:15.510Z,51.57
2022-12-31T21:33:46.348Z,51.52
2022-12-31T21:36:13.902Z,51.42
2022-12-31T21:38:40.652Z,51.35
2022-12-31T21:41:08.813Z,51.22
2022-12-31T21:43:35.366Z,51.88
2022-12-31T21:46:04.641Z,51.48
2022-12-31T21:48:31.570Z,51.28
2022-12-31T21:51:15.188Z,51.13
2022-12-31T21:53:41.688Z,51.24
2022-12-31T21:56:09.635Z,51.13
2022-12-31T21:58:38.303Z,51.04
2022-12-31T22:01:24.152Z,50.55
2022-12-31T22:03:51.316Z,50.81
2022-12-31T22:06:20.895Z,50.26
2022-12-31T22:08:53.768Z,50.57
2022-12-31T22:11:23.300Z,50.79
2022-12-31T22:13:50.075Z,50.79
2022-12-31T22:16:17.271Z,50.30
2022-12-31T22:18:44.252Z,50.44
2022-12-31T22:21:18.333Z,50.54
2022-12-31T22:23:47.233Z,50.45
2022-12-31T22:26:15.890Z,50.68
2022-12-31T22:28:43.995Z,50.19
2022-12-31T22:31:24.302Z,50.18
2022-12-31T22:33:51.086Z,49.82
2022-12-31T22:36:20.294Z,50.08
2022-12-31T22:38:47.664Z,50.14
2022-12-31T22:41:24.834Z,50.04
2022-12-31T22:43:58.636Z,50.15
2022-12-31T22:46:29.380Z,50.30
2022-12-31T22:48:58.741Z,49.73
2022-12-31T22:51:28.092Z,49.82
2022-12-31T22:54:11.900Z,49.88
2022-12-31T22:56:38.330Z,50.06
2022-12-31T22:59:04.777Z,49.70
2022-12-31T23:01:31.416Z,49.96
2022-12-31T23:03:58.179Z,49.75
2022-12-31T23:06:24.752Z,49.65
2022-12-31T23:09:11.379Z,49.77
2022-12-31T23:11:39.335Z,50.14
2022-12-31T23:14:25.979Z,50.27
2022-12-31T23:17:30.486Z,49.70
2022-12-31T23:20:16.273Z,49.59
2022-12-31T23:23:01.307Z,49.30
2022-12-31T23:25:28.018Z,49.56
2022-12-31T23:27:54.527Z,49.24
2022-12-31T23:30:20.962Z,49.75
2022-12-31T23:32:47.440Z,49.40
2022-12-31T23:35:14.025Z,49.48
2022-12-31T23:37:40.478Z,49.33
2022-12-31T23:40:07.854Z,49.70
2022-12-31T23:42:34.367Z,50.10
2022-12-31T23:45:00.831Z,49.78
2022-12-31T23:47:27.289Z,49.71
2022-12-31T23:49:53.871Z,49.99
2022-12-31T23:52:20.357Z,49.84
2022-12-31T23:54:46.847Z,49.95
2022-12-31T23:57:13.385Z,49.94
2022-12-31T23:59:39.881Z,49.97
